createdAt,value
2022-12-31T00:01:46.814Z,1.45
2022-12-31T00:04:14.308Z,1.40
2022-12-31T00:06:41.787Z,1.33
2022-12-31T00:09:09.546Z,1.50
2022-12-31T00:11:37.272Z,1.60
2022-12-31T00:14:06.360Z,1.23
2022-12-31T00:16:36.480Z,1.45
2022-12-31T00:19:05.168Z,1.33
2022-12-31T00:21:34.218Z,1.92
2022-12-31T00:24:02.605Z,1.92
2022-12-31T00:26:34.553Z,1.40
2022-12-31T00:29:04.902Z,1.37
2022-12-31T00:31:35.143Z,1.55
2022-12-31T00:34:02.892Z,1.45
2022-12-31T00:36:31.498Z,1.65
2022-12-31T00:39:00.034Z,1.50
2022-12-31T00:41:28.285Z,1.40
2022-12-31T00:43:56.124Z,1.20
2022-12-31T00:46:23.901Z,1.67
2022-12-31T00:48:52.748Z,1.40
2022-12-31T00:51:21.839Z,1.58
2022-12-31T00:53:49.418Z,1.38
2022-12-31T00:56:18.122Z,1.20
2022-12-31T00:58:45.651Z,1.25
2022-12-31T01:01:15.551Z,1.20
2022-12-31T01:03:43.181Z,1.10
2022-12-31T01:06:12.411Z,1.15
2022-12-31T01:08:39.881Z,1.42
2022-12-31T01:11:23.065Z,1.27
2022-12-31T01:13:52.909Z,1.40
2022-12-31T01:16:22.124Z,1.23
2022-12-31T01:18:49.764Z,1.30
2022-12-31T01:21:19.262Z,1.10
2022-12-31T01:23:46.775Z,1.30
2022-12-31T01:26:16.008Z,1.05
2022-12-31T01:28:43.635Z,1.10
2022-12-31T01:31:13.142Z,1.10
2022-12-31T01:33:41.351Z,1.20
2022-12-31T01:36:11.319Z,1.20
2022-12-31T01:38:40.743Z,1.20
2022-12-31T01:41:08.645Z,1.20
2022-12-31T01:43:45.421Z,1.10
2022-12-31T01:46:15.025Z,1.30
2022-12-31T01:48:42.856Z,1.30
2022-12-31T01:51:11.252Z,1.25
2022-12-31T01:53:41.075Z,1.10
2022-12-31T01:56:08.732Z,0.98
2022-12-31T01:58:38.127Z,1.20
2022-12-31T02:01:06.537Z,1.20
2022-12-31T02:03:34.057Z,1.15
2022-12-31T02:06:06.587Z,1.17
2022-12-31T02:08:39.928Z,1.38
2022-12-31T02:11:27.038Z,3.78
2022-12-31T02:13:58.608Z,1.95
2022-12-31T02:16:32.439Z,1.50
2022-12-31T02:19:05.683Z,1.65
2022-12-31T02:21:57.960Z,4.22
2022-12-31T02:25:03.079Z,3.47
2022-12-31T02:27:42.580Z,1.40
2022-12-31T02:30:16.366Z,3.35
2022-12-31T02:32:54.936Z,1.65
2022-12-31T02:35:26.243Z,3.63
2022-12-31T02:38:00.971Z,1.85
2022-12-31T02:40:28.565Z,3.78
2022-12-31T02:42:56.050Z,5.22
2022-12-31T02:45:28.863Z,3.78
2022-12-31T02:50:34.228Z,2.72
2022-12-31T02:53:10.687Z,1.42
2022-12-31T02:55:42.056Z,1.35
2022-12-31T02:58:14.385Z,1.40
2022-12-31T03:01:04.317Z,1.45
2022-12-31T03:03:32.207Z,1.40
2022-12-31T03:06:00.212Z,2.38
2022-12-31T03:08:27.910Z,1.30
2022-12-31T03:10:56.934Z,1.30
2022-12-31T03:13:23.747Z,1.08
2022-12-31T03:15:52.560Z,1.23
2022-12-31T03:18:40.901Z,1.17
2022-12-31T03:21:31.013Z,1.30
2022-12-31T03:24:16.346Z,1.00
2022-12-31T03:26:43.833Z,1.30
2022-12-31T03:29:11.273Z,1.52
2022-12-31T03:31:40.133Z,1.23
2022-12-31T03:34:07.598Z,0.98
2022-12-31T03:36:35.231Z,1.17
2022-12-31T03:39:02.688Z,1.00
2022-12-31T03:41:30.161Z,1.15
2022-12-31T03:43:57.604Z,1.10
2022-12-31T03:46:25.079Z,1.05
2022-12-31T03:48:53.889Z,1.27
2022-12-31T03:51:21.354Z,1.30
2022-12-31T03:53:48.817Z,1.30
2022-12-31T03:56:16.291Z,1.30
2022-12-31T03:58:43.863Z,1.20
2022-12-31T04:01:11.530Z,1.10
2022-12-31T04:03:39.041Z,1.13
2022-12-31T04:06:08.128Z,1.10
2022-12-31T04:08:35.570Z,1.20
2022-12-31T04:11:04.435Z,1.20
2022-12-31T04:13:31.886Z,1.20
2022-12-31T04:15:59.430Z,1.23
2022-12-31T04:18:26.939Z,1.27
2022-12-31T04:20:54.423Z,1.00
2022-12-31T04:23:23.208Z,1.27
2022-12-31T04:25:50.677Z,1.13
2022-12-31T04:28:18.183Z,1.08
2022-12-31T04:30:45.688Z,1.10
2022-12-31T04:33:13.229Z,1.10
2022-12-31T04:35:40.697Z,1.30
2022-12-31T04:38:08.191Z,1.00
2022-12-31T04:40:56.956Z,1.30
2022-12-31T04:43:24.464Z,1.30
2022-12-31T04:45:51.955Z,1.10
2022-12-31T04:48:19.463Z,1.10
2022-12-31T04:50:47.272Z,0.88
2022-12-31T04:53:14.805Z,1.00
2022-12-31T04:55:43.617Z,0.90
2022-12-31T04:58:11.125Z,1.20
2022-12-31T05:00:38.638Z,1.15
2022-12-31T05:03:06.136Z,0.90
2022-12-31T05:05:33.645Z,1.00
2022-12-31T05:08:01.151Z,1.15
2022-12-31T05:10:29.370Z,1.02
2022-12-31T05:12:58.178Z,0.98
2022-12-31T05:15:25.636Z,0.90
2022-12-31T05:17:53.140Z,1.00
2022-12-31T05:20:20.612Z,0.70
2022-12-31T05:22:48.087Z,0.80
2022-12-31T05:25:15.850Z,0.90
2022-12-31T05:27:43.452Z,1.58
2022-12-31T05:30:13.168Z,1.30
2022-12-31T05:32:41.156Z,0.73
2022-12-31T05:35:09.248Z,1.50
2022-12-31T05:37:36.733Z,1.02
2022-12-31T05:40:04.935Z,0.90
2022-12-31T05:42:32.448Z,0.90
2022-12-31T05:44:59.916Z,1.00
2022-12-31T05:47:29.697Z,0.93
2022-12-31T05:49:57.162Z,0.80
2022-12-31T05:52:24.645Z,1.00
2022-12-31T05:54:52.134Z,1.00
2022-12-31T05:57:19.669Z,0.95
2022-12-31T05:59:47.157Z,0.60
2022-12-31T06:02:14.766Z,0.73
2022-12-31T06:04:43.576Z,0.77
2022-12-31T06:07:11.090Z,0.80
2022-12-31T06:09:38.616Z,0.75
2022-12-31T06:12:06.828Z,0.80
2022-12-31T06:14:34.387Z,1.00
2022-12-31T06:17:02.164Z,0.70
2022-12-31T06:19:30.191Z,0.80
2022-12-31T06:21:59.016Z,0.80
2022-12-31T06:24:26.521Z,0.80
2022-12-31T06:26:54.027Z,0.90
2022-12-31T06:29:21.560Z,0.85
2022-12-31T06:31:49.059Z,0.75
2022-12-31T06:34:16.519Z,0.80
2022-12-31T06:36:44.000Z,0.70
2022-12-31T06:39:12.817Z,0.60
2022-12-31T06:41:40.314Z,0.60
2022-12-31T06:44:07.863Z,0.68
2022-12-31T06:46:35.441Z,0.70
2022-12-31T06:49:03.000Z,0.77
2022-12-31T06:51:30.500Z,0.80
2022-12-31T06:53:57.961Z,0.50
2022-12-31T06:56:34.003Z,0.70
2022-12-31T06:59:03.141Z,0.60
2022-12-31T07:01:47.464Z,0.60
2022-12-31T07:04:36.133Z,0.60
2022-12-31T07:07:08.805Z,0.75
2022-12-31T07:12:12.598Z,0.50
2022-12-31T07:14:44.267Z,0.70
2022-12-31T07:17:21.847Z,0.80
2022-12-31T07:19:57.874Z,0.70
2022-12-31T07:22:26.046Z,0.60
2022-12-31T07:24:54.160Z,0.70
2022-12-31T07:27:36.000Z,0.60
2022-12-31T07:30:06.241Z,0.70
2022-12-31T07:32:57.599Z,0.70
2022-12-31T07:35:34.943Z,0.70
2022-12-31T07:38:07.242Z,0.80
2022-12-31T07:40:39.459Z,0.70
2022-12-31T07:43:12.752Z,0.80
2022-12-31T07:45:44.947Z,0.80
2022-12-31T07:48:22.427Z,0.82
2022-12-31T07:50:50.218Z,0.80
2022-12-31T07:53:18.385Z,0.80
2022-12-31T07:55:45.890Z,0.80
2022-12-31T07:58:21.377Z,0.80
2022-12-31T08:00:49.254Z,0.60
2022-12-31T08:03:27.773Z,0.90
2022-12-31T08:06:01.934Z,0.80
2022-12-31T08:08:36.833Z,1.58
2022-12-31T08:11:10.959Z,0.90
2022-12-31T08:13:40.139Z,0.90
2022-12-31T08:16:11.088Z,0.90
2022-12-31T08:18:39.082Z,0.80
2022-12-31T08:21:15.619Z,0.63
2022-12-31T08:23:48.948Z,0.80
2022-12-31T08:26:24.712Z,2.72
2022-12-31T08:29:02.278Z,0.85
2022-12-31T08:31:36.169Z,0.90
2022-12-31T08:34:09.645Z,0.70
2022-12-31T08:36:45.401Z,0.95
2022-12-31T08:39:19.678Z,0.70
2022-12-31T08:41:49.326Z,0.65
2022-12-31T08:44:24.002Z,1.23
2022-12-31T08:46:56.458Z,1.17
2022-12-31T08:49:27.645Z,24.02
2022-12-31T08:51:55.647Z,2.85
2022-12-31T08:54:23.601Z,4.55
2022-12-31T08:57:04.844Z,1.73
2022-12-31T08:59:40.633Z,1.00
2022-12-31T09:02:49.653Z,1.55
2022-12-31T09:05:21.703Z,2.00
2022-12-31T09:07:52.783Z,1.10
2022-12-31T09:10:24.622Z,0.88
2022-12-31T09:12:59.149Z,1.00
2022-12-31T09:15:31.550Z,1.67
2022-12-31T09:17:59.594Z,0.88
2022-12-31T09:20:41.795Z,0.75
2022-12-31T09:23:12.086Z,0.90
2022-12-31T09:25:44.047Z,0.90
2022-12-31T09:28:16.573Z,1.25
2022-12-31T09:30:51.549Z,0.70
2022-12-31T09:33:31.167Z,0.82
2022-12-31T09:36:00.286Z,1.48
2022-12-31T09:38:32.217Z,0.90
2022-12-31T09:41:14.328Z,2.85
2022-12-31T09:44:15.447Z,1.38
2022-12-31T09:47:08.697Z,1.38
2022-12-31T09:50:28.042Z,1.30
2022-12-31T09:53:05.178Z,2.00
2022-12-31T09:55:37.880Z,6.85
2022-12-31T10:00:40.278Z,1.30
2022-12-31T10:03:33.322Z,1.25
2022-12-31T10:08:51.050Z,1.58
2022-12-31T10:11:25.301Z,1.00
2022-12-31T10:14:08.938Z,1.30
2022-12-31T10:16:49.657Z,1.23
2022-12-31T10:19:53.483Z,1.02
2022-12-31T10:22:44.950Z,1.13
2022-12-31T10:25:39.727Z,1.10
2022-12-31T10:28:16.453Z,0.77
2022-12-31T10:30:50.271Z,1.40
2022-12-31T10:33:21.013Z,0.80
2022-12-31T10:35:54.756Z,0.77
2022-12-31T10:38:28.368Z,0.85
2022-12-31T10:41:32.363Z,0.65
2022-12-31T10:44:20.929Z,0.80
2022-12-31T10:47:05.788Z,0.90
2022-12-31T10:50:05.178Z,0.82
2022-12-31T10:53:03.128Z,1.10
2022-12-31T10:56:16.189Z,1.00
2022-12-31T10:59:10.108Z,1.00
2022-12-31T11:01:49.167Z,0.98
2022-12-31T11:04:53.253Z,1.13
2022-12-31T11:07:56.088Z,1.00
2022-12-31T11:10:58.973Z,1.10
2022-12-31T11:13:59.125Z,1.63
2022-12-31T11:16:39.312Z,1.08
2022-12-31T11:19:13.705Z,1.15
2022-12-31T11:21:55.096Z,0.98
2022-12-31T11:24:31.967Z,1.00
2022-12-31T11:27:10.040Z,1.23
2022-12-31T11:29:47.011Z,0.88
2022-12-31T11:32:23.451Z,0.93
2022-12-31T11:35:30.053Z,1.08
2022-12-31T11:38:04.716Z,1.02
2022-12-31T11:40:38.234Z,1.08
2022-12-31T11:43:16.165Z,1.00
2022-12-31T11:45:55.212Z,0.95
2022-12-31T11:48:31.336Z,0.90
2022-12-31T11:51:11.024Z,1.27
2022-12-31T11:53:57.388Z,1.30
2022-12-31T11:56:28.280Z,0.80
2022-12-31T11:58:57.414Z,0.95
2022-12-31T12:01:28.456Z,0.95
2022-12-31T12:03:56.487Z,0.73
2022-12-31T12:06:26.457Z,0.98
2022-12-31T12:08:54.654Z,1.10
2022-12-31T12:11:25.750Z,1.30
2022-12-31T12:13:53.259Z,0.77
2022-12-31T12:16:22.982Z,0.95
2022-12-31T12:18:52.109Z,0.90
2022-12-31T12:21:22.015Z,0.98
2022-12-31T12:23:57.078Z,1.60
2022-12-31T12:26:29.991Z,0.85
2022-12-31T12:29:01.190Z,0.70
2022-12-31T12:31:30.560Z,1.38
2022-12-31T12:33:58.309Z,1.92
2022-12-31T12:36:27.296Z,2.40
2022-12-31T12:39:02.410Z,1.75
2022-12-31T12:41:29.965Z,2.47
2022-12-31T12:44:05.759Z,2.15
2022-12-31T12:46:36.889Z,3.15
2022-12-31T12:49:05.084Z,2.72
2022-12-31T12:51:46.566Z,4.82
2022-12-31T12:54:24.575Z,3.92
2022-12-31T12:56:59.288Z,2.60
2022-12-31T12:59:50.781Z,1.83
2022-12-31T13:02:36.387Z,1.40
2022-12-31T13:05:14.805Z,1.58
2022-12-31T13:07:51.850Z,1.83
2022-12-31T13:10:30.944Z,1.60
2022-12-31T13:13:23.493Z,1.70
2022-12-31T13:15:56.129Z,2.35
2022-12-31T13:18:34.017Z,8.83
2022-12-31T13:21:18.426Z,2.42
2022-12-31T13:23:50.791Z,2.20
2022-12-31T13:26:23.443Z,1.85
2022-12-31T13:28:53.555Z,1.50
2022-12-31T13:31:25.996Z,1.38
2022-12-31T13:33:57.370Z,1.70
2022-12-31T13:36:26.710Z,1.10
2022-12-31T13:38:55.669Z,1.05
2022-12-31T13:41:27.219Z,1.52
2022-12-31T13:43:59.280Z,1.10
2022-12-31T13:46:35.771Z,1.08
2022-12-31T13:49:06.889Z,1.13
2022-12-31T13:51:41.790Z,1.30
2022-12-31T13:54:18.571Z,1.27
2022-12-31T13:56:46.495Z,1.20
2022-12-31T13:59:17.170Z,1.65
2022-12-31T14:01:49.351Z,1.45
2022-12-31T14:04:20.694Z,1.30
2022-12-31T14:06:56.753Z,1.30
2022-12-31T14:09:26.359Z,1.30
2022-12-31T14:12:10.410Z,1.33
2022-12-31T14:14:44.147Z,1.30
2022-12-31T14:17:18.747Z,1.10
2022-12-31T14:19:55.492Z,7.07
2022-12-31T14:22:30.472Z,1.70
2022-12-31T14:24:59.936Z,0.93
2022-12-31T14:27:30.010Z,1.45
2022-12-31T14:30:00.069Z,1.00
2022-12-31T14:32:40.655Z,1.00
2022-12-31T14:35:23.897Z,1.40
2022-12-31T14:37:58.172Z,1.88
2022-12-31T14:40:28.313Z,1.10
2022-12-31T14:43:02.791Z,1.40
2022-12-31T14:45:41.241Z,1.17
2022-12-31T14:48:21.844Z,1.00
2022-12-31T14:50:51.187Z,1.20
2022-12-31T14:53:22.615Z,1.15
2022-12-31T14:55:58.097Z,1.10
2022-12-31T14:58:32.023Z,1.38
2022-12-31T15:01:00.668Z,1.40
2022-12-31T15:03:39.996Z,1.15
2022-12-31T15:06:29.030Z,1.20
2022-12-31T15:09:08.223Z,1.02
2022-12-31T15:11:46.130Z,1.23
2022-12-31T15:14:33.698Z,1.55
2022-12-31T15:17:10.866Z,1.92
2022-12-31T15:20:16.723Z,1.70
2022-12-31T15:22:47.829Z,1.73
2022-12-31T15:25:33.883Z,1.50
2022-12-31T15:28:06.449Z,1.52
2022-12-31T15:30:37.629Z,1.30
2022-12-31T15:33:08.666Z,1.23
2022-12-31T15:35:47.967Z,1.83
2022-12-31T15:38:33.593Z,2.83
2022-12-31T15:41:01.679Z,1.00
2022-12-31T15:43:36.777Z,1.45
2022-12-31T15:46:11.596Z,2.10
2022-12-31T15:48:44.579Z,2.05
2022-12-31T15:51:16.967Z,1.58
2022-12-31T15:53:52.187Z,1.65
2022-12-31T15:56:23.418Z,1.50
2022-12-31T15:58:55.626Z,1.73
2022-12-31T16:01:24.749Z,1.40
2022-12-31T16:03:56.533Z,1.80
2022-12-31T16:06:24.288Z,1.77
2022-12-31T16:08:53.318Z,2.10
2022-12-31T16:11:20.806Z,1.60
2022-12-31T16:13:50.854Z,1.83
2022-12-31T16:16:22.317Z,1.45
2022-12-31T16:18:51.033Z,1.30
2022-12-31T16:21:32.546Z,3.40
2022-12-31T16:24:02.773Z,1.70
2022-12-31T16:26:34.211Z,1.90
2022-12-31T16:29:04.304Z,1.60
2022-12-31T16:31:32.684Z,1.85
2022-12-31T16:34:07.527Z,1.67
2022-12-31T16:36:35.412Z,1.75
2022-12-31T16:39:25.888Z,1.70
2022-12-31T16:41:54.307Z,1.33
2022-12-31T16:44:26.444Z,1.45
2022-12-31T16:46:57.074Z,1.40
2022-12-31T16:49:25.033Z,1.52
2022-12-31T16:51:52.933Z,1.60
2022-12-31T16:54:21.934Z,1.25
2022-12-31T16:56:51.110Z,1.05
2022-12-31T16:59:24.167Z,1.67
2022-12-31T17:01:52.590Z,1.70
2022-12-31T17:04:21.652Z,1.60
2022-12-31T17:06:49.268Z,1.67
2022-12-31T17:09:20.843Z,1.73
2022-12-31T17:11:53.882Z,1.43
2022-12-31T17:14:23.963Z,1.92
2022-12-31T17:17:03.108Z,1.88
2022-12-31T17:19:42.519Z,1.85
2022-12-31T17:22:14.403Z,2.08
2022-12-31T17:24:42.607Z,1.50
2022-12-31T17:27:11.716Z,2.05
2022-12-31T17:29:40.420Z,1.55
2022-12-31T17:32:26.634Z,1.23
2022-12-31T17:34:54.282Z,1.92
2022-12-31T17:37:24.472Z,1.85
2022-12-31T17:39:52.764Z,1.10
2022-12-31T17:42:30.189Z,2.28
2022-12-31T17:45:01.011Z,2.25
2022-12-31T17:47:35.179Z,1.48
2022-12-31T17:50:08.539Z,2.13
2022-12-31T17:52:36.448Z,1.73
2022-12-31T17:55:04.197Z,2.00
2022-12-31T17:57:33.076Z,3.13
2022-12-31T18:00:00.557Z,3.10
2022-12-31T18:02:28.182Z,3.70
2022-12-31T18:04:55.933Z,4.18
2022-12-31T18:07:23.432Z,4.07
2022-12-31T18:09:50.931Z,4.55
2022-12-31T18:12:18.564Z,4.57
2022-12-31T18:14:47.352Z,7.57
2022-12-31T18:17:16.221Z,6.25
2022-12-31T18:20:04.163Z,4.80
2022-12-31T18:22:31.572Z,6.40
2022-12-31T18:24:59.266Z,6.55
2022-12-31T18:27:26.782Z,6.70
2022-12-31T18:30:00.556Z,6.45
2022-12-31T18:32:32.846Z,7.35
2022-12-31T18:35:00.353Z,10.57
2022-12-31T18:37:29.492Z,9.82
2022-12-31T18:39:56.948Z,6.82
2022-12-31T18:42:26.761Z,3.95
2022-12-31T18:44:55.903Z,4.20
2022-12-31T18:47:24.013Z,5.72
2022-12-31T18:49:51.542Z,7.63
2022-12-31T18:52:21.252Z,7.95
2022-12-31T18:54:48.960Z,7.63
2022-12-31T18:57:17.065Z,6.30
2022-12-31T18:59:44.544Z,4.28
2022-12-31T19:02:16.679Z,7.22
2022-12-31T19:04:44.252Z,6.88
2022-12-31T19:07:11.777Z,5.03
2022-12-31T19:09:49.116Z,16.95
2022-12-31T19:12:19.076Z,16.70
2022-12-31T19:14:46.605Z,14.82
2022-12-31T19:17:15.604Z,10.52
2022-12-31T19:19:43.155Z,7.38
2022-12-31T19:22:14.682Z,7.63
2022-12-31T19:24:42.236Z,7.07
2022-12-31T19:27:11.123Z,12.18
2022-12-31T19:29:38.782Z,8.98
2022-12-31T19:32:07.063Z,5.70
2022-12-31T19:34:36.040Z,3.00
2022-12-31T19:37:03.542Z,2.80
2022-12-31T19:39:31.024Z,3.38
2022-12-31T19:41:59.687Z,60.47
2022-12-31T19:44:27.556Z,18.25
2022-12-31T19:46:55.233Z,7.25
2022-12-31T19:49:22.957Z,3.20
2022-12-31T19:51:51.894Z,10.88
2022-12-31T19:54:19.401Z,5.70
2022-12-31T19:56:47.103Z,8.40
2022-12-31T19:59:14.581Z,6.32
2022-12-31T20:01:42.157Z,10.25
2022-12-31T20:04:10.013Z,18.83
2022-12-31T20:06:37.538Z,11.45
2022-12-31T20:09:06.790Z,10.80
2022-12-31T20:11:34.677Z,11.57
2022-12-31T20:14:02.308Z,19.45
2022-12-31T20:16:31.735Z,42.65
2022-12-31T20:18:59.472Z,63.85
2022-12-31T20:21:28.842Z,37.67
2022-12-31T20:23:56.649Z,22.02
2022-12-31T20:26:27.519Z,21.83
2022-12-31T20:28:55.014Z,27.27
2022-12-31T20:31:27.141Z,26.25
2022-12-31T20:33:54.892Z,21.17
2022-12-31T20:36:23.562Z,35.22
2022-12-31T20:38:51.391Z,15.00
2022-12-31T20:41:20.526Z,12.85
2022-12-31T20:43:49.712Z,9.80
2022-12-31T20:46:20.307Z,8.55
2022-12-31T20:48:49.247Z,9.80
2022-12-31T20:51:18.380Z,12.52
2022-12-31T20:53:47.832Z,5.18
2022-12-31T20:56:15.512Z,12.20
2022-12-31T20:58:43.001Z,10.82
2022-12-31T21:01:12.426Z,20.13
2022-12-31T21:06:29.763Z,9.98
2022-12-31T21:08:57.921Z,5.32
2022-12-31T21:11:43.291Z,7.28
2022-12-31T21:14:10.899Z,4.38
2022-12-31T21:16:39.927Z,5.40
2022-12-31T21:19:07.526Z,4.90
2022-12-31T21:21:35.047Z,2.90
2022-12-31T21:24:02.702Z,3.67
2022-12-31T21:26:30.557Z,3.20
2022-12-31T21:28:58.151Z,2.83
2022-12-31T21:31:25.728Z,3.80
2022-12-31T21:33:54.590Z,5.68
2022-12-31T21:36:22.106Z,6.72
2022-12-31T21:38:49.697Z,7.30
2022-12-31T21:41:33.641Z,5.78
2022-12-31T21:44:03.162Z,5.82
2022-12-31T21:46:31.034Z,5.68
2022-12-31T21:49:00.884Z,4.55
2022-12-31T21:51:28.784Z,5.90
2022-12-31T21:53:56.298Z,5.60
2022-12-31T21:56:22.985Z,3.10
2022-12-31T21:59:15.219Z,2.30
2022-12-31T22:02:06.021Z,5.00
2022-12-31T22:05:01.405Z,11.88
2022-12-31T22:07:22.577Z,16.90
2022-12-31T22:09:50.069Z,31.45
2022-12-31T22:12:17.590Z,17.23
2022-12-31T22:15:14.992Z,12.75
2022-12-31T22:17:32.569Z,26.77
2022-12-31T22:20:25.674Z,5.95
2022-12-31T22:22:48.923Z,3.33
2022-12-31T22:25:16.685Z,3.60
2022-12-31T22:27:58.372Z,2.58
2022-12-31T22:30:32.153Z,1.80
2022-12-31T22:32:59.667Z,2.53
2022-12-31T22:35:28.492Z,1.65
2022-12-31T22:37:58.479Z,2.45
2022-12-31T22:40:29.237Z,2.92
2022-12-31T22:42:56.771Z,2.50
2022-12-31T22:45:24.325Z,2.33
2022-12-31T22:47:52.003Z,1.67
2022-12-31T22:50:19.766Z,2.30
2022-12-31T22:52:49.594Z,2.60
2022-12-31T22:55:17.180Z,2.97
2022-12-31T22:57:44.664Z,2.38
2022-12-31T23:00:14.401Z,2.50
2022-12-31T23:02:43.147Z,73.75
2022-12-31T23:05:15.490Z,174.77
2022-12-31T23:07:44.207Z,151.73
2022-12-31T23:10:30.790Z,86.00
2022-12-31T23:13:19.390Z,21.50
2022-12-31T23:16:04.596Z,14.57
2022-12-31T23:18:50.041Z,18.30
2022-12-31T23:21:35.314Z,21.77
2022-12-31T23:24:04.440Z,16.75
2022-12-31T23:26:33.325Z,5.53
2022-12-31T23:29:02.133Z,8.15
2022-12-31T23:31:30.602Z,16.58
2022-12-31T23:33:58.299Z,17.65
2022-12-31T23:36:25.821Z,11.73
2022-12-31T23:38:54.935Z,6.88
2022-12-31T23:41:25.725Z,5.15
2022-12-31T23:43:54.522Z,4.68
2022-12-31T23:46:22.303Z,6.25
2022-12-31T23:48:49.833Z,5.35
2022-12-31T23:51:17.349Z,5.32
2022-12-31T23:53:44.888Z,4.55
2022-12-31T23:56:22.797Z,2.85
2022-12-31T23:58:55.894Z,2.67
